sensor_id;sensor_type;location;lat;lon;timestamp;P1;durP1;ratioP1;P2;durP2;ratioP2
74170;SDS011;62526;50.948;6.590;2023-12-07T00:02:21;19.27;;;12.60;;
74170;SDS011;62526;50.948;6.590;2023-12-07T00:04:48;26.50;;;13.20;;
74170;SDS011;62526;50.948;6.590;2023-12-07T00:07:15;20.90;;;13.20;;
74170;SDS011;62526;50.948;6.590;2023-12-07T00:09:42;18.23;;;12.00;;
74170;SDS011;62526;50.948;6.590;2023-12-07T00:12:10;19.03;;;12.23;;
74170;SDS011;62526;50.948;6.590;2023-12-07T00:14:36;21.80;;;13.07;;
74170;SDS011;62526;50.948;6.590;2023-12-07T00:17:03;21.27;;;12.17;;
74170;SDS011;62526;50.948;6.590;2023-12-07T00:19:29;21.60;;;12.70;;
74170;SDS011;62526;50.948;6.590;2023-12-07T00:21:56;20.00;;;12.70;;
74170;SDS011;62526;50.948;6.590;2023-12-07T00:24:23;18.57;;;12.93;;
74170;SDS011;62526;50.948;6.590;2023-12-07T00:26:50;21.07;;;12.47;;
74170;SDS011;62526;50.948;6.590;2023-12-07T00:29:17;21.90;;;12.30;;
74170;SDS011;62526;50.948;6.590;2023-12-07T00:31:43;22.23;;;11.93;;
74170;SDS011;62526;50.948;6.590;2023-12-07T00:34:10;22.73;;;13.30;;
74170;SDS011;62526;50.948;6.590;2023-12-07T00:36:37;18.67;;;12.23;;
74170;SDS011;62526;50.948;6.590;2023-12-07T00:39:08;22.83;;;12.97;;
74170;SDS011;62526;50.948;6.590;2023-12-07T00:41:39;19.30;;;12.70;;
74170;SDS011;62526;50.948;6.590;2023-12-07T00:44:06;26.07;;;13.03;;
74170;SDS011;62526;50.948;6.590;2023-12-07T00:46:33;22.50;;;13.33;;
74170;SDS011;62526;50.948;6.590;2023-12-07T00:48:59;23.47;;;13.23;;
74170;SDS011;62526;50.948;6.590;2023-12-07T00:53:59;26.27;;;15.23;;
74170;SDS011;62526;50.948;6.590;2023-12-07T00:56:25;23.03;;;12.80;;
74170;SDS011;62526;50.948;6.590;2023-12-07T00:58:52;23.53;;;13.53;;
74170;SDS011;62526;50.948;6.590;2023-12-07T01:01:18;31.63;;;14.77;;
74170;SDS011;62526;50.948;6.590;2023-12-07T01:03:45;21.93;;;12.50;;
74170;SDS011;62526;50.948;6.590;2023-12-07T01:06:12;22.10;;;13.43;;
74170;SDS011;62526;50.948;6.590;2023-12-07T01:08:38;22.77;;;13.13;;
74170;SDS011;62526;50.948;6.590;2023-12-07T01:11:05;31.10;;;14.17;;
74170;SDS011;62526;50.948;6.590;2023-12-07T01:13:32;23.03;;;13.50;;
74170;SDS011;62526;50.948;6.590;2023-12-07T01:15:58;22.13;;;12.83;;
74170;SDS011;62526;50.948;6.590;2023-12-07T01:18:25;24.53;;;13.33;;
74170;SDS011;62526;50.948;6.590;2023-12-07T01:20:52;20.80;;;12.27;;
74170;SDS011;62526;50.948;6.590;2023-12-07T01:23:19;24.23;;;13.10;;
74170;SDS011;62526;50.948;6.590;2023-12-07T01:25:46;20.47;;;11.53;;
74170;SDS011;62526;50.948;6.590;2023-12-07T01:28:13;19.57;;;12.47;;
74170;SDS011;62526;50.948;6.590;2023-12-07T01:30:39;20.60;;;11.70;;
74170;SDS011;62526;50.948;6.590;2023-12-07T01:33:06;18.90;;;11.37;;
74170;SDS011;62526;50.948;6.590;2023-12-07T01:35:32;21.70;;;11.60;;
74170;SDS011;62526;50.948;6.590;2023-12-07T01:37:59;21.10;;;12.27;;
74170;SDS011;62526;50.948;6.590;2023-12-07T01:40:26;26.00;;;12.70;;
74170;SDS011;62526;50.948;6.590;2023-12-07T01:42:52;22.93;;;12.27;;
74170;SDS011;62526;50.948;6.590;2023-12-07T01:45:19;22.43;;;13.30;;
74170;SDS011;62526;50.948;6.590;2023-12-07T01:47:46;21.83;;;12.80;;
74170;SDS011;62526;50.948;6.590;2023-12-07T01:50:13;23.03;;;12.63;;
74170;SDS011;62526;50.948;6.590;2023-12-07T01:52:41;16.80;;;11.60;;
74170;SDS011;62526;50.948;6.590;2023-12-07T01:55:07;24.43;;;12.97;;
74170;SDS011;62526;50.948;6.590;2023-12-07T01:57:34;26.10;;;12.33;;
74170;SDS011;62526;50.948;6.590;2023-12-07T02:00:01;27.17;;;11.97;;
74170;SDS011;62526;50.948;6.590;2023-12-07T02:02:27;20.53;;;12.30;;
74170;SDS011;62526;50.948;6.590;2023-12-07T02:04:55;20.93;;;12.50;;
74170;SDS011;62526;50.948;6.590;2023-12-07T02:07:22;16.97;;;11.20;;
74170;SDS011;62526;50.948;6.590;2023-12-07T02:09:49;21.60;;;11.60;;
74170;SDS011;62526;50.948;6.590;2023-12-07T02:12:15;19.83;;;11.47;;
74170;SDS011;62526;50.948;6.590;2023-12-07T02:14:43;18.13;;;10.90;;
74170;SDS011;62526;50.948;6.590;2023-12-07T02:17:14;21.20;;;12.17;;
74170;SDS011;62526;50.948;6.590;2023-12-07T02:19:49;21.93;;;11.63;;
74170;SDS011;62526;50.948;6.590;2023-12-07T02:22:19;23.13;;;12.80;;
74170;SDS011;62526;50.948;6.590;2023-12-07T02:24:48;23.20;;;13.00;;
74170;SDS011;62526;50.948;6.590;2023-12-07T02:27:11;23.77;;;13.33;;
74170;SDS011;62526;50.948;6.590;2023-12-07T02:29:37;27.63;;;13.20;;
74170;SDS011;62526;50.948;6.590;2023-12-07T02:32:04;26.23;;;13.67;;
74170;SDS011;62526;50.948;6.590;2023-12-07T02:34:31;22.20;;;12.33;;
74170;SDS011;62526;50.948;6.590;2023-12-07T02:36:57;25.93;;;12.67;;
74170;SDS011;62526;50.948;6.590;2023-12-07T02:39:25;25.07;;;12.43;;
74170;SDS011;62526;50.948;6.590;2023-12-07T02:41:52;26.77;;;12.80;;
74170;SDS011;62526;50.948;6.590;2023-12-07T02:44:18;25.27;;;13.63;;
74170;SDS011;62526;50.948;6.590;2023-12-07T02:46:45;24.60;;;13.40;;
74170;SDS011;62526;50.948;6.590;2023-12-07T02:49:12;32.07;;;15.23;;
74170;SDS011;62526;50.948;6.590;2023-12-07T02:51:38;25.53;;;13.53;;
74170;SDS011;62526;50.948;6.590;2023-12-07T02:54:07;26.50;;;15.10;;
74170;SDS011;62526;50.948;6.590;2023-12-07T02:56:33;25.77;;;14.67;;
74170;SDS011;62526;50.948;6.590;2023-12-07T02:59:00;29.27;;;15.80;;
74170;SDS011;62526;50.948;6.590;2023-12-07T03:01:27;31.33;;;15.33;;
74170;SDS011;62526;50.948;6.590;2023-12-07T03:03:54;30.23;;;13.67;;
74170;SDS011;62526;50.948;6.590;2023-12-07T03:06:20;34.33;;;14.50;;
74170;SDS011;62526;50.948;6.590;2023-12-07T03:08:47;27.03;;;14.33;;
74170;SDS011;62526;50.948;6.590;2023-12-07T03:11:13;31.37;;;14.87;;
74170;SDS011;62526;50.948;6.590;2023-12-07T03:13:40;33.67;;;15.93;;
74170;SDS011;62526;50.948;6.590;2023-12-07T03:16:07;28.47;;;15.43;;
74170;SDS011;62526;50.948;6.590;2023-12-07T03:18:34;30.23;;;15.53;;
74170;SDS011;62526;50.948;6.590;2023-12-07T03:21:01;29.37;;;15.37;;
74170;SDS011;62526;50.948;6.590;2023-12-07T03:23:27;30.03;;;14.83;;
74170;SDS011;62526;50.948;6.590;2023-12-07T03:25:54;28.20;;;14.10;;
74170;SDS011;62526;50.948;6.590;2023-12-07T03:28:21;28.77;;;14.43;;
74170;SDS011;62526;50.948;6.590;2023-12-07T03:30:47;35.83;;;15.77;;
74170;SDS011;62526;50.948;6.590;2023-12-07T03:33:14;26.70;;;15.43;;
74170;SDS011;62526;50.948;6.590;2023-12-07T03:35:40;31.47;;;16.60;;
74170;SDS011;62526;50.948;6.590;2023-12-07T03:38:07;29.17;;;16.67;;
74170;SDS011;62526;50.948;6.590;2023-12-07T03:40:34;36.40;;;17.73;;
74170;SDS011;62526;50.948;6.590;2023-12-07T03:43:00;36.87;;;16.87;;
74170;SDS011;62526;50.948;6.590;2023-12-07T03:45:27;32.73;;;16.97;;
74170;SDS011;62526;50.948;6.590;2023-12-07T03:47:54;38.53;;;17.27;;
74170;SDS011;62526;50.948;6.590;2023-12-07T03:50:20;32.40;;;17.00;;
74170;SDS011;62526;50.948;6.590;2023-12-07T03:52:47;35.17;;;16.83;;
74170;SDS011;62526;50.948;6.590;2023-12-07T03:55:14;28.43;;;15.83;;
74170;SDS011;62526;50.948;6.590;2023-12-07T03:57:40;31.27;;;15.87;;
74170;SDS011;62526;50.948;6.590;2023-12-07T04:00:07;28.97;;;15.87;;
74170;SDS011;62526;50.948;6.590;2023-12-07T04:02:35;30.00;;;17.30;;
74170;SDS011;62526;50.948;6.590;2023-12-07T04:05:02;32.13;;;14.87;;
74170;SDS011;62526;50.948;6.590;2023-12-07T04:07:29;30.63;;;15.97;;
74170;SDS011;62526;50.948;6.590;2023-12-07T04:09:56;33.63;;;15.93;;
74170;SDS011;62526;50.948;6.590;2023-12-07T04:12:23;33.17;;;16.17;;
74170;SDS011;62526;50.948;6.590;2023-12-07T04:14:50;29.67;;;15.70;;
74170;SDS011;62526;50.948;6.590;2023-12-07T04:17:17;27.60;;;15.23;;
74170;SDS011;62526;50.948;6.590;2023-12-07T04:19:44;30.50;;;15.93;;
74170;SDS011;62526;50.948;6.590;2023-12-07T04:22:10;34.10;;;17.20;;
74170;SDS011;62526;50.948;6.590;2023-12-07T04:24:37;31.03;;;16.40;;
74170;SDS011;62526;50.948;6.590;2023-12-07T04:27:04;30.10;;;16.67;;
74170;SDS011;62526;50.948;6.590;2023-12-07T04:29:31;35.03;;;17.07;;
74170;SDS011;62526;50.948;6.590;2023-12-07T04:31:57;31.13;;;16.50;;
74170;SDS011;62526;50.948;6.590;2023-12-07T04:34:24;33.53;;;16.33;;
74170;SDS011;62526;50.948;6.590;2023-12-07T04:36:51;30.50;;;15.73;;
74170;SDS011;62526;50.948;6.590;2023-12-07T04:39:18;25.23;;;15.50;;
74170;SDS011;62526;50.948;6.590;2023-12-07T04:41:45;30.40;;;15.70;;
74170;SDS011;62526;50.948;6.590;2023-12-07T04:44:11;35.20;;;15.83;;
74170;SDS011;62526;50.948;6.590;2023-12-07T04:46:38;32.60;;;16.17;;
74170;SDS011;62526;50.948;6.590;2023-12-07T04:49:05;35.80;;;17.40;;
74170;SDS011;62526;50.948;6.590;2023-12-07T04:51:34;28.63;;;15.93;;
74170;SDS011;62526;50.948;6.590;2023-12-07T04:54:02;34.60;;;15.57;;
74170;SDS011;62526;50.948;6.590;2023-12-07T04:56:27;29.17;;;16.13;;
74170;SDS011;62526;50.948;6.590;2023-12-07T04:58:54;38.10;;;16.03;;
74170;SDS011;62526;50.948;6.590;2023-12-07T05:01:21;32.93;;;15.83;;
74170;SDS011;62526;50.948;6.590;2023-12-07T05:03:47;33.03;;;15.83;;
74170;SDS011;62526;50.948;6.590;2023-12-07T05:06:14;31.20;;;16.03;;
74170;SDS011;62526;50.948;6.590;2023-12-07T05:08:41;33.63;;;16.77;;
74170;SDS011;62526;50.948;6.590;2023-12-07T05:11:08;36.83;;;16.10;;
74170;SDS011;62526;50.948;6.590;2023-12-07T05:13:35;25.80;;;15.03;;
74170;SDS011;62526;50.948;6.590;2023-12-07T05:16:01;34.73;;;15.50;;
74170;SDS011;62526;50.948;6.590;2023-12-07T05:18:28;26.50;;;15.10;;
74170;SDS011;62526;50.948;6.590;2023-12-07T05:20:56;29.30;;;15.67;;
74170;SDS011;62526;50.948;6.590;2023-12-07T05:23:22;29.60;;;15.03;;
74170;SDS011;62526;50.948;6.590;2023-12-07T05:25:49;25.77;;;14.90;;
74170;SDS011;62526;50.948;6.590;2023-12-07T05:28:16;27.90;;;15.37;;
74170;SDS011;62526;50.948;6.590;2023-12-07T05:30:44;31.47;;;14.17;;
74170;SDS011;62526;50.948;6.590;2023-12-07T05:33:11;31.77;;;15.00;;
74170;SDS011;62526;50.948;6.590;2023-12-07T05:35:37;28.53;;;14.43;;
74170;SDS011;62526;50.948;6.590;2023-12-07T05:38:04;27.97;;;14.17;;
74170;SDS011;62526;50.948;6.590;2023-12-07T05:40:30;27.03;;;14.57;;
74170;SDS011;62526;50.948;6.590;2023-12-07T05:42:57;25.37;;;14.03;;
74170;SDS011;62526;50.948;6.590;2023-12-07T05:45:23;23.87;;;13.53;;
74170;SDS011;62526;50.948;6.590;2023-12-07T05:47:50;26.00;;;14.10;;
74170;SDS011;62526;50.948;6.590;2023-12-07T05:50:17;29.00;;;13.27;;
74170;SDS011;62526;50.948;6.590;2023-12-07T05:52:43;26.60;;;13.67;;
74170;SDS011;62526;50.948;6.590;2023-12-07T05:55:10;32.90;;;16.27;;
74170;SDS011;62526;50.948;6.590;2023-12-07T05:57:37;51.23;;;20.90;;
74170;SDS011;62526;50.948;6.590;2023-12-07T06:00:04;43.77;;;20.23;;
74170;SDS011;62526;50.948;6.590;2023-12-07T06:02:30;34.40;;;17.47;;
74170;SDS011;62526;50.948;6.590;2023-12-07T06:04:57;29.27;;;12.83;;
74170;SDS011;62526;50.948;6.590;2023-12-07T06:07:24;25.60;;;14.97;;
74170;SDS011;62526;50.948;6.590;2023-12-07T06:09:51;25.43;;;13.13;;
74170;SDS011;62526;50.948;6.590;2023-12-07T06:12:18;22.40;;;12.30;;
74170;SDS011;62526;50.948;6.590;2023-12-07T06:14:45;22.33;;;13.07;;
74170;SDS011;62526;50.948;6.590;2023-12-07T06:17:11;23.33;;;13.30;;
74170;SDS011;62526;50.948;6.590;2023-12-07T06:19:38;28.93;;;14.33;;
74170;SDS011;62526;50.948;6.590;2023-12-07T06:22:04;21.57;;;12.83;;
74170;SDS011;62526;50.948;6.590;2023-12-07T06:24:33;25.73;;;12.40;;
74170;SDS011;62526;50.948;6.590;2023-12-07T06:27:00;26.43;;;13.53;;
74170;SDS011;62526;50.948;6.590;2023-12-07T06:29:26;23.23;;;13.87;;
74170;SDS011;62526;50.948;6.590;2023-12-07T06:31:53;25.80;;;14.37;;
74170;SDS011;62526;50.948;6.590;2023-12-07T06:34:19;24.43;;;12.33;;
74170;SDS011;62526;50.948;6.590;2023-12-07T06:36:51;20.93;;;12.77;;
74170;SDS011;62526;50.948;6.590;2023-12-07T06:39:19;19.80;;;11.53;;
74170;SDS011;62526;50.948;6.590;2023-12-07T06:41:46;22.80;;;13.00;;
74170;SDS011;62526;50.948;6.590;2023-12-07T06:44:13;23.93;;;12.40;;
74170;SDS011;62526;50.948;6.590;2023-12-07T06:46:39;23.73;;;13.43;;
74170;SDS011;62526;50.948;6.590;2023-12-07T06:49:06;22.37;;;12.43;;
74170;SDS011;62526;50.948;6.590;2023-12-07T06:54:09;21.53;;;11.67;;
74170;SDS011;62526;50.948;6.590;2023-12-07T06:56:35;20.63;;;11.90;;
74170;SDS011;62526;50.948;6.590;2023-12-07T06:59:02;20.40;;;10.60;;
74170;SDS011;62526;50.948;6.590;2023-12-07T07:01:30;24.83;;;12.17;;
74170;SDS011;62526;50.948;6.590;2023-12-07T07:03:57;25.53;;;11.93;;
74170;SDS011;62526;50.948;6.590;2023-12-07T07:06:23;21.43;;;11.53;;
74170;SDS011;62526;50.948;6.590;2023-12-07T07:08:50;23.67;;;11.83;;
74170;SDS011;62526;50.948;6.590;2023-12-07T07:11:16;24.07;;;12.37;;
74170;SDS011;62526;50.948;6.590;2023-12-07T07:13:43;25.13;;;12.23;;
74170;SDS011;62526;50.948;6.590;2023-12-07T07:16:10;20.07;;;11.57;;
74170;SDS011;62526;50.948;6.590;2023-12-07T07:18:38;23.90;;;11.33;;
74170;SDS011;62526;50.948;6.590;2023-12-07T07:21:04;20.60;;;11.30;;
74170;SDS011;62526;50.948;6.590;2023-12-07T07:23:30;20.27;;;12.17;;
74170;SDS011;62526;50.948;6.590;2023-12-07T07:25:57;22.00;;;11.57;;
74170;SDS011;62526;50.948;6.590;2023-12-07T07:28:24;19.37;;;11.43;;
74170;SDS011;62526;50.948;6.590;2023-12-07T07:30:50;26.03;;;11.97;;
74170;SDS011;62526;50.948;6.590;2023-12-07T07:33:17;19.17;;;11.10;;
74170;SDS011;62526;50.948;6.590;2023-12-07T07:35:44;24.80;;;11.73;;
74170;SDS011;62526;50.948;6.590;2023-12-07T07:38:12;24.13;;;12.50;;
74170;SDS011;62526;50.948;6.590;2023-12-07T07:40:38;21.70;;;11.83;;
74170;SDS011;62526;50.948;6.590;2023-12-07T07:43:05;18.33;;;11.97;;
74170;SDS011;62526;50.948;6.590;2023-12-07T07:45:32;22.77;;;13.03;;
74170;SDS011;62526;50.948;6.590;2023-12-07T07:47:58;22.90;;;12.97;;
74170;SDS011;62526;50.948;6.590;2023-12-07T07:50:25;23.00;;;12.70;;
74170;SDS011;62526;50.948;6.590;2023-12-07T07:55:36;21.37;;;12.13;;
74170;SDS011;62526;50.948;6.590;2023-12-07T07:58:03;26.80;;;12.83;;
74170;SDS011;62526;50.948;6.590;2023-12-07T08:00:29;31.83;;;12.97;;
74170;SDS011;62526;50.948;6.590;2023-12-07T08:02:57;25.87;;;13.80;;
74170;SDS011;62526;50.948;6.590;2023-12-07T08:05:24;22.70;;;13.10;;
74170;SDS011;62526;50.948;6.590;2023-12-07T08:07:50;24.83;;;12.87;;
74170;SDS011;62526;50.948;6.590;2023-12-07T08:10:17;27.87;;;13.00;;
74170;SDS011;62526;50.948;6.590;2023-12-07T08:12:44;28.20;;;13.50;;
74170;SDS011;62526;50.948;6.590;2023-12-07T08:15:11;29.80;;;14.37;;
74170;SDS011;62526;50.948;6.590;2023-12-07T08:17:38;23.20;;;12.17;;
74170;SDS011;62526;50.948;6.590;2023-12-07T08:20:05;21.87;;;13.17;;
74170;SDS011;62526;50.948;6.590;2023-12-07T08:22:32;24.53;;;12.40;;
74170;SDS011;62526;50.948;6.590;2023-12-07T08:24:59;20.17;;;11.83;;
74170;SDS011;62526;50.948;6.590;2023-12-07T08:27:28;23.33;;;12.83;;
74170;SDS011;62526;50.948;6.590;2023-12-07T08:29:55;24.43;;;12.77;;
74170;SDS011;62526;50.948;6.590;2023-12-07T08:32:21;22.77;;;12.20;;
74170;SDS011;62526;50.948;6.590;2023-12-07T08:34:48;19.47;;;12.10;;
74170;SDS011;62526;50.948;6.590;2023-12-07T08:37:15;21.90;;;11.80;;
74170;SDS011;62526;50.948;6.590;2023-12-07T08:39:42;20.47;;;12.20;;
74170;SDS011;62526;50.948;6.590;2023-12-07T08:42:09;19.63;;;10.47;;
74170;SDS011;62526;50.948;6.590;2023-12-07T08:44:35;20.60;;;11.67;;
74170;SDS011;62526;50.948;6.590;2023-12-07T08:47:02;19.23;;;11.47;;
74170;SDS011;62526;50.948;6.590;2023-12-07T08:49:29;21.43;;;11.17;;
74170;SDS011;62526;50.948;6.590;2023-12-07T08:51:56;19.97;;;11.77;;
74170;SDS011;62526;50.948;6.590;2023-12-07T08:54:22;19.70;;;11.67;;
74170;SDS011;62526;50.948;6.590;2023-12-07T08:56:49;21.03;;;11.73;;
74170;SDS011;62526;50.948;6.590;2023-12-07T08:59:15;19.23;;;10.87;;
74170;SDS011;62526;50.948;6.590;2023-12-07T09:01:42;23.47;;;11.70;;
74170;SDS011;62526;50.948;6.590;2023-12-07T09:04:09;21.27;;;11.83;;
74170;SDS011;62526;50.948;6.590;2023-12-07T09:06:36;21.07;;;11.77;;
74170;SDS011;62526;50.948;6.590;2023-12-07T09:09:03;20.87;;;11.10;;
74170;SDS011;62526;50.948;6.590;2023-12-07T09:11:33;21.90;;;11.90;;
74170;SDS011;62526;50.948;6.590;2023-12-07T09:14:11;21.33;;;12.80;;
74170;SDS011;62526;50.948;6.590;2023-12-07T09:16:43;20.23;;;11.60;;
74170;SDS011;62526;50.948;6.590;2023-12-07T09:19:10;19.00;;;11.33;;
74170;SDS011;62526;50.948;6.590;2023-12-07T09:21:37;23.43;;;12.03;;
74170;SDS011;62526;50.948;6.590;2023-12-07T09:24:05;22.73;;;10.87;;
74170;SDS011;62526;50.948;6.590;2023-12-07T09:26:32;24.17;;;12.60;;
74170;SDS011;62526;50.948;6.590;2023-12-07T09:28:59;20.37;;;11.30;;
74170;SDS011;62526;50.948;6.590;2023-12-07T09:31:25;22.20;;;12.67;;
74170;SDS011;62526;50.948;6.590;2023-12-07T09:33:52;18.30;;;10.60;;
74170;SDS011;62526;50.948;6.590;2023-12-07T09:36:19;22.37;;;12.70;;
74170;SDS011;62526;50.948;6.590;2023-12-07T09:38:45;24.60;;;12.53;;
74170;SDS011;62526;50.948;6.590;2023-12-07T09:41:12;20.37;;;11.63;;
74170;SDS011;62526;50.948;6.590;2023-12-07T09:43:39;23.27;;;11.97;;
74170;SDS011;62526;50.948;6.590;2023-12-07T09:46:05;23.53;;;12.20;;
74170;SDS011;62526;50.948;6.590;2023-12-07T09:48:32;21.63;;;11.97;;
74170;SDS011;62526;50.948;6.590;2023-12-07T09:50:59;19.57;;;11.30;;
74170;SDS011;62526;50.948;6.590;2023-12-07T09:53:27;21.53;;;11.00;;
74170;SDS011;62526;50.948;6.590;2023-12-07T09:55:53;21.80;;;12.33;;
74170;SDS011;62526;50.948;6.590;2023-12-07T09:58:19;18.07;;;11.97;;
74170;SDS011;62526;50.948;6.590;2023-12-07T10:00:47;21.00;;;12.30;;
74170;SDS011;62526;50.948;6.590;2023-12-07T10:03:20;17.80;;;11.33;;
74170;SDS011;62526;50.948;6.590;2023-12-07T10:05:53;20.97;;;11.47;;
74170;SDS011;62526;50.948;6.590;2023-12-07T10:08:26;19.03;;;10.77;;
74170;SDS011;62526;50.948;6.590;2023-12-07T10:13:28;19.27;;;12.30;;
74170;SDS011;62526;50.948;6.590;2023-12-07T10:16:04;24.93;;;12.70;;
74170;SDS011;62526;50.948;6.590;2023-12-07T10:18:23;23.00;;;11.20;;
74170;SDS011;62526;50.948;6.590;2023-12-07T10:20:51;21.00;;;11.87;;
74170;SDS011;62526;50.948;6.590;2023-12-07T10:23:17;20.17;;;11.57;;
74170;SDS011;62526;50.948;6.590;2023-12-07T10:25:44;20.73;;;11.77;;
74170;SDS011;62526;50.948;6.590;2023-12-07T10:28:10;18.00;;;11.97;;
74170;SDS011;62526;50.948;6.590;2023-12-07T10:30:37;18.00;;;10.57;;
74170;SDS011;62526;50.948;6.590;2023-12-07T10:33:07;15.33;;;9.77;;
74170;SDS011;62526;50.948;6.590;2023-12-07T10:35:38;17.87;;;11.00;;
74170;SDS011;62526;50.948;6.590;2023-12-07T10:38:03;14.90;;;9.03;;
74170;SDS011;62526;50.948;6.590;2023-12-07T10:40:30;16.60;;;9.40;;
74170;SDS011;62526;50.948;6.590;2023-12-07T10:42:57;14.43;;;9.43;;
74170;SDS011;62526;50.948;6.590;2023-12-07T10:45:24;17.37;;;9.27;;
74170;SDS011;62526;50.948;6.590;2023-12-07T10:47:51;13.90;;;9.73;;
74170;SDS011;62526;50.948;6.590;2023-12-07T10:50:19;14.63;;;9.10;;
74170;SDS011;62526;50.948;6.590;2023-12-07T10:52:45;18.17;;;9.73;;
74170;SDS011;62526;50.948;6.590;2023-12-07T10:55:13;15.17;;;9.33;;
74170;SDS011;62526;50.948;6.590;2023-12-07T10:57:38;14.50;;;8.60;;
74170;SDS011;62526;50.948;6.590;2023-12-07T11:00:06;16.17;;;8.70;;
74170;SDS011;62526;50.948;6.590;2023-12-07T11:02:35;16.63;;;9.13;;
74170;SDS011;62526;50.948;6.590;2023-12-07T11:05:01;13.30;;;8.50;;
74170;SDS011;62526;50.948;6.590;2023-12-07T11:07:30;14.60;;;9.13;;
74170;SDS011;62526;50.948;6.590;2023-12-07T11:09:58;13.50;;;8.57;;
74170;SDS011;62526;50.948;6.590;2023-12-07T11:12:27;13.60;;;8.67;;
74170;SDS011;62526;50.948;6.590;2023-12-07T11:14:50;12.03;;;7.60;;
74170;SDS011;62526;50.948;6.590;2023-12-07T11:17:16;14.27;;;8.10;;
74170;SDS011;62526;50.948;6.590;2023-12-07T11:19:43;13.57;;;7.87;;
74170;SDS011;62526;50.948;6.590;2023-12-07T11:22:10;14.50;;;8.30;;
74170;SDS011;62526;50.948;6.590;2023-12-07T11:24:37;13.33;;;8.80;;
74170;SDS011;62526;50.948;6.590;2023-12-07T11:27:03;11.73;;;8.97;;
74170;SDS011;62526;50.948;6.590;2023-12-07T11:29:30;16.20;;;9.37;;
74170;SDS011;62526;50.948;6.590;2023-12-07T11:32:01;13.27;;;9.20;;
74170;SDS011;62526;50.948;6.590;2023-12-07T11:34:34;14.37;;;8.63;;
74170;SDS011;62526;50.948;6.590;2023-12-07T11:37:01;14.47;;;8.47;;
74170;SDS011;62526;50.948;6.590;2023-12-07T11:39:29;15.50;;;8.50;;
74170;SDS011;62526;50.948;6.590;2023-12-07T11:41:56;13.97;;;9.30;;
74170;SDS011;62526;50.948;6.590;2023-12-07T11:44:32;15.57;;;8.37;;
74170;SDS011;62526;50.948;6.590;2023-12-07T11:46:57;15.57;;;9.50;;
74170;SDS011;62526;50.948;6.590;2023-12-07T11:49:24;16.10;;;9.67;;
74170;SDS011;62526;50.948;6.590;2023-12-07T11:51:50;15.30;;;8.47;;
74170;SDS011;62526;50.948;6.590;2023-12-07T11:54:18;15.37;;;9.33;;
74170;SDS011;62526;50.948;6.590;2023-12-07T11:56:44;16.63;;;9.70;;
74170;SDS011;62526;50.948;6.590;2023-12-07T11:59:11;16.73;;;9.83;;
74170;SDS011;62526;50.948;6.590;2023-12-07T12:01:37;15.50;;;9.80;;
74170;SDS011;62526;50.948;6.590;2023-12-07T12:04:05;13.20;;;8.80;;
74170;SDS011;62526;50.948;6.590;2023-12-07T12:06:32;10.17;;;7.40;;
74170;SDS011;62526;50.948;6.590;2023-12-07T12:08:58;11.47;;;7.13;;
74170;SDS011;62526;50.948;6.590;2023-12-07T12:11:25;11.40;;;6.93;;
74170;SDS011;62526;50.948;6.590;2023-12-07T12:13:52;10.53;;;7.07;;
74170;SDS011;62526;50.948;6.590;2023-12-07T12:16:18;8.17;;;5.70;;
74170;SDS011;62526;50.948;6.590;2023-12-07T12:18:45;11.60;;;6.30;;
74170;SDS011;62526;50.948;6.590;2023-12-07T12:21:11;10.67;;;6.27;;
74170;SDS011;62526;50.948;6.590;2023-12-07T12:23:38;11.23;;;6.40;;
74170;SDS011;62526;50.948;6.590;2023-12-07T12:26:05;7.93;;;5.83;;
74170;SDS011;62526;50.948;6.590;2023-12-07T12:28:31;9.73;;;5.63;;
74170;SDS011;62526;50.948;6.590;2023-12-07T12:30:58;10.73;;;5.90;;
74170;SDS011;62526;50.948;6.590;2023-12-07T12:33:25;8.90;;;6.27;;
74170;SDS011;62526;50.948;6.590;2023-12-07T12:38:26;9.37;;;6.03;;
74170;SDS011;62526;50.948;6.590;2023-12-07T12:40:52;9.70;;;5.50;;
74170;SDS011;62526;50.948;6.590;2023-12-07T12:43:19;9.13;;;5.93;;
74170;SDS011;62526;50.948;6.590;2023-12-07T12:45:46;8.77;;;5.37;;
74170;SDS011;62526;50.948;6.590;2023-12-07T12:48:12;10.17;;;6.07;;
74170;SDS011;62526;50.948;6.590;2023-12-07T12:50:39;8.10;;;5.50;;
74170;SDS011;62526;50.948;6.590;2023-12-07T12:53:06;8.07;;;5.67;;
74170;SDS011;62526;50.948;6.590;2023-12-07T12:55:33;9.20;;;6.27;;
74170;SDS011;62526;50.948;6.590;2023-12-07T12:57:59;10.33;;;6.37;;
74170;SDS011;62526;50.948;6.590;2023-12-07T13:00:26;10.70;;;5.83;;
74170;SDS011;62526;50.948;6.590;2023-12-07T13:02:52;9.83;;;6.17;;
74170;SDS011;62526;50.948;6.590;2023-12-07T13:05:19;10.30;;;6.60;;
74170;SDS011;62526;50.948;6.590;2023-12-07T13:07:46;8.53;;;5.13;;
74170;SDS011;62526;50.948;6.590;2023-12-07T13:10:13;10.70;;;6.40;;
74170;SDS011;62526;50.948;6.590;2023-12-07T13:12:39;8.87;;;6.23;;
74170;SDS011;62526;50.948;6.590;2023-12-07T13:15:07;11.90;;;7.73;;
74170;SDS011;62526;50.948;6.590;2023-12-07T13:17:34;14.87;;;7.77;;
74170;SDS011;62526;50.948;6.590;2023-12-07T13:20:01;11.77;;;7.27;;
74170;SDS011;62526;50.948;6.590;2023-12-07T13:22:27;12.13;;;7.80;;
74170;SDS011;62526;50.948;6.590;2023-12-07T13:24:54;13.70;;;8.40;;
74170;SDS011;62526;50.948;6.590;2023-12-07T13:27:20;12.97;;;8.10;;
74170;SDS011;62526;50.948;6.590;2023-12-07T13:29:47;13.30;;;7.70;;
74170;SDS011;62526;50.948;6.590;2023-12-07T13:32:14;12.50;;;8.23;;
74170;SDS011;62526;50.948;6.590;2023-12-07T13:34:40;13.73;;;8.60;;
74170;SDS011;62526;50.948;6.590;2023-12-07T13:37:07;15.87;;;7.97;;
74170;SDS011;62526;50.948;6.590;2023-12-07T13:39:34;11.43;;;7.50;;
74170;SDS011;62526;50.948;6.590;2023-12-07T13:42:00;14.00;;;7.10;;
74170;SDS011;62526;50.948;6.590;2023-12-07T13:44:27;12.80;;;8.40;;
74170;SDS011;62526;50.948;6.590;2023-12-07T13:46:54;12.57;;;8.33;;
74170;SDS011;62526;50.948;6.590;2023-12-07T13:49:20;10.40;;;7.33;;
74170;SDS011;62526;50.948;6.590;2023-12-07T13:51:47;12.83;;;7.97;;
74170;SDS011;62526;50.948;6.590;2023-12-07T13:54:14;12.67;;;7.90;;
74170;SDS011;62526;50.948;6.590;2023-12-07T13:56:41;14.43;;;7.70;;
74170;SDS011;62526;50.948;6.590;2023-12-07T13:59:07;11.40;;;7.53;;
74170;SDS011;62526;50.948;6.590;2023-12-07T14:01:35;11.80;;;7.10;;
74170;SDS011;62526;50.948;6.590;2023-12-07T14:04:01;12.83;;;6.90;;
74170;SDS011;62526;50.948;6.590;2023-12-07T14:06:28;11.10;;;7.80;;
74170;SDS011;62526;50.948;6.590;2023-12-07T14:08:55;12.07;;;7.97;;
74170;SDS011;62526;50.948;6.590;2023-12-07T14:11:21;15.53;;;8.50;;
74170;SDS011;62526;50.948;6.590;2023-12-07T14:13:49;17.23;;;8.10;;
74170;SDS011;62526;50.948;6.590;2023-12-07T14:16:15;13.60;;;8.87;;
74170;SDS011;62526;50.948;6.590;2023-12-07T14:18:42;14.83;;;8.87;;
74170;SDS011;62526;50.948;6.590;2023-12-07T14:21:09;14.07;;;8.97;;
74170;SDS011;62526;50.948;6.590;2023-12-07T14:23:35;11.87;;;8.10;;
74170;SDS011;62526;50.948;6.590;2023-12-07T14:26:02;14.93;;;9.07;;
74170;SDS011;62526;50.948;6.590;2023-12-07T14:28:29;13.50;;;8.43;;
74170;SDS011;62526;50.948;6.590;2023-12-07T14:30:56;18.57;;;10.57;;
74170;SDS011;62526;50.948;6.590;2023-12-07T14:33:23;23.70;;;12.20;;
74170;SDS011;62526;50.948;6.590;2023-12-07T14:35:49;17.57;;;9.50;;
74170;SDS011;62526;50.948;6.590;2023-12-07T14:38:16;17.20;;;9.50;;